sensor_id;sensor_type;location;lat;lon;timestamp;P1;durP1;ratioP1;P2;durP2;ratioP2
7833;SDS011;3962;42.696;23.354;2023-04-10T00:01:07;17.13;;;10.23;;
7833;SDS011;3962;42.696;23.354;2023-04-10T00:03:34;16.47;;;10.83;;
7833;SDS011;3962;42.696;23.354;2023-04-10T00:06:01;15.87;;;10.07;;
7833;SDS011;3962;42.696;23.354;2023-04-10T00:08:29;17.40;;;10.53;;
7833;SDS011;3962;42.696;23.354;2023-04-10T00:10:56;15.00;;;9.47;;
7833;SDS011;3962;42.696;23.354;2023-04-10T00:13:22;14.73;;;9.63;;
7833;SDS011;3962;42.696;23.354;2023-04-10T00:15:49;12.93;;;8.97;;
7833;SDS011;3962;42.696;23.354;2023-04-10T00:18:16;13.27;;;8.33;;
7833;SDS011;3962;42.696;23.354;2023-04-10T00:20:43;11.37;;;8.13;;
7833;SDS011;3962;42.696;23.354;2023-04-10T00:23:10;12.20;;;8.33;;
7833;SDS011;3962;42.696;23.354;2023-04-10T00:25:38;11.57;;;8.13;;
7833;SDS011;3962;42.696;23.354;2023-04-10T00:28:05;12.03;;;8.23;;
7833;SDS011;3962;42.696;23.354;2023-04-10T00:30:31;12.00;;;8.87;;
7833;SDS011;3962;42.696;23.354;2023-04-10T00:32:58;12.10;;;8.20;;
7833;SDS011;3962;42.696;23.354;2023-04-10T00:35:25;12.53;;;8.23;;
7833;SDS011;3962;42.696;23.354;2023-04-10T00:37:52;13.63;;;8.03;;
7833;SDS011;3962;42.696;23.354;2023-04-10T00:40:21;14.17;;;8.27;;
7833;SDS011;3962;42.696;23.354;2023-04-10T00:42:49;11.77;;;7.30;;
7833;SDS011;3962;42.696;23.354;2023-04-10T00:45:16;10.07;;;7.90;;
7833;SDS011;3962;42.696;23.354;2023-04-10T00:47:43;12.63;;;8.47;;
7833;SDS011;3962;42.696;23.354;2023-04-10T00:50:10;12.13;;;7.83;;
7833;SDS011;3962;42.696;23.354;2023-04-10T00:52:37;11.40;;;7.50;;
7833;SDS011;3962;42.696;23.354;2023-04-10T00:55:04;12.60;;;7.27;;
7833;SDS011;3962;42.696;23.354;2023-04-10T00:57:32;11.50;;;7.70;;
7833;SDS011;3962;42.696;23.354;2023-04-10T01:00:00;13.17;;;8.20;;
7833;SDS011;3962;42.696;23.354;2023-04-10T01:02:28;11.50;;;8.20;;
7833;SDS011;3962;42.696;23.354;2023-04-10T01:04:56;11.40;;;7.50;;
7833;SDS011;3962;42.696;23.354;2023-04-10T01:07:27;9.77;;;7.43;;
7833;SDS011;3962;42.696;23.354;2023-04-10T01:10:03;11.40;;;8.63;;
7833;SDS011;3962;42.696;23.354;2023-04-10T01:12:47;12.00;;;8.77;;
7833;SDS011;3962;42.696;23.354;2023-04-10T01:15:24;12.27;;;8.63;;
7833;SDS011;3962;42.696;23.354;2023-04-10T01:17:56;12.40;;;8.70;;
7833;SDS011;3962;42.696;23.354;2023-04-10T01:20:28;13.73;;;8.20;;
7833;SDS011;3962;42.696;23.354;2023-04-10T01:26:01;12.43;;;9.63;;
7833;SDS011;3962;42.696;23.354;2023-04-10T01:31:19;12.77;;;8.83;;
7833;SDS011;3962;42.696;23.354;2023-04-10T01:33:51;12.87;;;9.27;;
7833;SDS011;3962;42.696;23.354;2023-04-10T01:36:24;12.73;;;8.80;;
7833;SDS011;3962;42.696;23.354;2023-04-10T01:38:54;13.23;;;8.33;;
7833;SDS011;3962;42.696;23.354;2023-04-10T01:41:23;14.27;;;9.67;;
7833;SDS011;3962;42.696;23.354;2023-04-10T01:43:53;15.57;;;9.37;;
7833;SDS011;3962;42.696;23.354;2023-04-10T01:46:20;13.50;;;9.53;;
7833;SDS011;3962;42.696;23.354;2023-04-10T01:48:49;16.33;;;10.60;;
7833;SDS011;3962;42.696;23.354;2023-04-10T01:51:17;15.83;;;10.13;;
7833;SDS011;3962;42.696;23.354;2023-04-10T01:53:44;14.30;;;10.07;;
7833;SDS011;3962;42.696;23.354;2023-04-10T01:56:12;15.40;;;10.20;;
7833;SDS011;3962;42.696;23.354;2023-04-10T01:58:41;16.97;;;10.43;;
7833;SDS011;3962;42.696;23.354;2023-04-10T02:01:09;13.33;;;9.57;;
7833;SDS011;3962;42.696;23.354;2023-04-10T02:03:36;13.07;;;9.30;;
7833;SDS011;3962;42.696;23.354;2023-04-10T02:06:07;13.07;;;9.13;;
7833;SDS011;3962;42.696;23.354;2023-04-10T02:08:41;17.93;;;10.97;;
7833;SDS011;3962;42.696;23.354;2023-04-10T02:11:16;12.63;;;8.70;;
7833;SDS011;3962;42.696;23.354;2023-04-10T02:13:52;11.83;;;9.07;;
7833;SDS011;3962;42.696;23.354;2023-04-10T02:16:24;13.50;;;8.90;;
7833;SDS011;3962;42.696;23.354;2023-04-10T02:18:53;14.80;;;9.97;;
7833;SDS011;3962;42.696;23.354;2023-04-10T02:21:21;11.90;;;8.37;;
7833;SDS011;3962;42.696;23.354;2023-04-10T02:23:48;15.23;;;10.37;;
7833;SDS011;3962;42.696;23.354;2023-04-10T02:26:15;15.43;;;10.10;;
7833;SDS011;3962;42.696;23.354;2023-04-10T02:28:42;13.80;;;9.10;;
7833;SDS011;3962;42.696;23.354;2023-04-10T02:31:09;15.40;;;9.63;;
7833;SDS011;3962;42.696;23.354;2023-04-10T02:33:37;12.50;;;8.77;;
7833;SDS011;3962;42.696;23.354;2023-04-10T02:36:04;15.77;;;9.50;;
7833;SDS011;3962;42.696;23.354;2023-04-10T02:38:32;13.70;;;10.13;;
7833;SDS011;3962;42.696;23.354;2023-04-10T02:40:58;15.20;;;10.20;;
7833;SDS011;3962;42.696;23.354;2023-04-10T02:43:25;15.90;;;9.77;;
7833;SDS011;3962;42.696;23.354;2023-04-10T02:45:52;14.83;;;9.50;;
7833;SDS011;3962;42.696;23.354;2023-04-10T02:48:19;14.47;;;9.93;;
7833;SDS011;3962;42.696;23.354;2023-04-10T02:50:47;16.90;;;11.13;;
7833;SDS011;3962;42.696;23.354;2023-04-10T02:53:14;15.20;;;10.90;;
7833;SDS011;3962;42.696;23.354;2023-04-10T02:55:41;18.33;;;12.27;;
7833;SDS011;3962;42.696;23.354;2023-04-10T02:58:08;19.07;;;11.80;;
7833;SDS011;3962;42.696;23.354;2023-04-10T03:00:35;17.63;;;11.73;;
7833;SDS011;3962;42.696;23.354;2023-04-10T03:03:02;18.37;;;11.80;;
7833;SDS011;3962;42.696;23.354;2023-04-10T03:05:29;20.50;;;12.83;;
7833;SDS011;3962;42.696;23.354;2023-04-10T03:07:57;19.60;;;11.83;;
7833;SDS011;3962;42.696;23.354;2023-04-10T03:10:24;23.20;;;13.13;;
7833;SDS011;3962;42.696;23.354;2023-04-10T03:12:51;20.87;;;13.07;;
7833;SDS011;3962;42.696;23.354;2023-04-10T03:15:18;21.47;;;13.50;;
7833;SDS011;3962;42.696;23.354;2023-04-10T03:17:44;21.33;;;14.07;;
7833;SDS011;3962;42.696;23.354;2023-04-10T03:20:11;22.50;;;14.77;;
7833;SDS011;3962;42.696;23.354;2023-04-10T03:22:39;24.00;;;14.50;;
7833;SDS011;3962;42.696;23.354;2023-04-10T03:25:08;23.17;;;15.07;;
7833;SDS011;3962;42.696;23.354;2023-04-10T03:27:35;25.07;;;14.33;;
7833;SDS011;3962;42.696;23.354;2023-04-10T03:30:02;20.30;;;13.13;;
7833;SDS011;3962;42.696;23.354;2023-04-10T03:32:29;21.30;;;13.80;;
7833;SDS011;3962;42.696;23.354;2023-04-10T03:34:56;19.37;;;13.10;;
7833;SDS011;3962;42.696;23.354;2023-04-10T03:37:23;23.27;;;12.27;;
7833;SDS011;3962;42.696;23.354;2023-04-10T03:39:51;22.03;;;12.57;;
7833;SDS011;3962;42.696;23.354;2023-04-10T03:42:20;18.73;;;12.13;;
7833;SDS011;3962;42.696;23.354;2023-04-10T03:44:46;18.23;;;12.10;;
7833;SDS011;3962;42.696;23.354;2023-04-10T03:47:13;15.70;;;11.07;;
7833;SDS011;3962;42.696;23.354;2023-04-10T03:49:40;16.93;;;11.07;;
7833;SDS011;3962;42.696;23.354;2023-04-10T03:52:07;16.23;;;10.87;;
7833;SDS011;3962;42.696;23.354;2023-04-10T03:54:33;18.30;;;11.37;;
7833;SDS011;3962;42.696;23.354;2023-04-10T03:57:00;15.27;;;10.20;;
7833;SDS011;3962;42.696;23.354;2023-04-10T03:59:28;17.30;;;11.67;;
7833;SDS011;3962;42.696;23.354;2023-04-10T04:01:55;17.60;;;11.53;;
7833;SDS011;3962;42.696;23.354;2023-04-10T04:04:22;18.80;;;11.67;;
7833;SDS011;3962;42.696;23.354;2023-04-10T04:06:50;16.13;;;11.17;;
7833;SDS011;3962;42.696;23.354;2023-04-10T04:09:17;19.40;;;12.90;;
7833;SDS011;3962;42.696;23.354;2023-04-10T04:11:44;17.47;;;11.53;;
7833;SDS011;3962;42.696;23.354;2023-04-10T04:14:11;20.40;;;13.40;;
7833;SDS011;3962;42.696;23.354;2023-04-10T04:16:39;25.13;;;16.27;;
7833;SDS011;3962;42.696;23.354;2023-04-10T04:19:06;23.90;;;15.80;;
7833;SDS011;3962;42.696;23.354;2023-04-10T04:21:32;22.30;;;15.43;;
7833;SDS011;3962;42.696;23.354;2023-04-10T04:23:59;22.17;;;14.70;;
7833;SDS011;3962;42.696;23.354;2023-04-10T04:26:26;26.83;;;15.60;;
7833;SDS011;3962;42.696;23.354;2023-04-10T04:28:53;22.83;;;14.60;;
7833;SDS011;3962;42.696;23.354;2023-04-10T04:31:20;24.13;;;15.70;;
7833;SDS011;3962;42.696;23.354;2023-04-10T04:33:49;21.13;;;14.73;;
7833;SDS011;3962;42.696;23.354;2023-04-10T04:36:16;21.73;;;14.17;;
7833;SDS011;3962;42.696;23.354;2023-04-10T04:38:43;21.77;;;13.27;;
7833;SDS011;3962;42.696;23.354;2023-04-10T04:41:10;24.73;;;15.67;;
7833;SDS011;3962;42.696;23.354;2023-04-10T04:43:36;21.60;;;13.93;;
7833;SDS011;3962;42.696;23.354;2023-04-10T04:46:03;34.80;;;18.10;;
7833;SDS011;3962;42.696;23.354;2023-04-10T04:48:30;25.83;;;16.83;;
7833;SDS011;3962;42.696;23.354;2023-04-10T04:50:58;22.07;;;14.50;;
7833;SDS011;3962;42.696;23.354;2023-04-10T04:53:25;21.77;;;14.60;;
7833;SDS011;3962;42.696;23.354;2023-04-10T04:55:52;21.00;;;14.23;;
7833;SDS011;3962;42.696;23.354;2023-04-10T04:58:19;22.27;;;14.87;;
7833;SDS011;3962;42.696;23.354;2023-04-10T05:00:47;24.23;;;15.13;;
7833;SDS011;3962;42.696;23.354;2023-04-10T05:03:14;25.43;;;15.33;;
7833;SDS011;3962;42.696;23.354;2023-04-10T05:05:41;29.93;;;19.00;;
7833;SDS011;3962;42.696;23.354;2023-04-10T05:08:10;31.70;;;20.00;;
7833;SDS011;3962;42.696;23.354;2023-04-10T05:10:36;29.73;;;16.47;;
7833;SDS011;3962;42.696;23.354;2023-04-10T05:13:03;27.27;;;17.97;;
7833;SDS011;3962;42.696;23.354;2023-04-10T05:15:30;28.17;;;18.10;;
7833;SDS011;3962;42.696;23.354;2023-04-10T05:17:57;29.47;;;17.97;;
7833;SDS011;3962;42.696;23.354;2023-04-10T05:20:24;25.73;;;15.80;;
7833;SDS011;3962;42.696;23.354;2023-04-10T05:22:51;27.90;;;15.13;;
7833;SDS011;3962;42.696;23.354;2023-04-10T05:25:20;33.87;;;17.23;;
7833;SDS011;3962;42.696;23.354;2023-04-10T05:27:46;31.03;;;17.10;;
7833;SDS011;3962;42.696;23.354;2023-04-10T05:30:13;26.10;;;15.70;;
7833;SDS011;3962;42.696;23.354;2023-04-10T05:32:40;20.53;;;12.53;;
7833;SDS011;3962;42.696;23.354;2023-04-10T05:35:07;23.17;;;13.97;;
7833;SDS011;3962;42.696;23.354;2023-04-10T05:37:34;20.47;;;12.77;;
7833;SDS011;3962;42.696;23.354;2023-04-10T05:40:01;21.43;;;12.70;;
7833;SDS011;3962;42.696;23.354;2023-04-10T05:42:30;22.60;;;14.17;;
7833;SDS011;3962;42.696;23.354;2023-04-10T05:44:57;24.73;;;12.50;;
7833;SDS011;3962;42.696;23.354;2023-04-10T05:47:24;26.87;;;12.47;;
7833;SDS011;3962;42.696;23.354;2023-04-10T05:49:51;22.23;;;11.40;;
7833;SDS011;3962;42.696;23.354;2023-04-10T05:52:17;20.97;;;11.50;;
7833;SDS011;3962;42.696;23.354;2023-04-10T05:54:44;19.60;;;11.60;;
7833;SDS011;3962;42.696;23.354;2023-04-10T05:57:12;17.50;;;9.77;;
7833;SDS011;3962;42.696;23.354;2023-04-10T05:59:40;18.27;;;10.50;;
7833;SDS011;3962;42.696;23.354;2023-04-10T06:02:08;13.90;;;8.87;;
7833;SDS011;3962;42.696;23.354;2023-04-10T06:04:36;18.43;;;9.97;;
7833;SDS011;3962;42.696;23.354;2023-04-10T06:07:03;18.83;;;10.57;;
7833;SDS011;3962;42.696;23.354;2023-04-10T06:09:30;17.50;;;9.90;;
7833;SDS011;3962;42.696;23.354;2023-04-10T06:11:56;16.47;;;11.53;;
7833;SDS011;3962;42.696;23.354;2023-04-10T06:14:24;21.53;;;11.77;;
7833;SDS011;3962;42.696;23.354;2023-04-10T06:16:52;20.30;;;12.90;;
7833;SDS011;3962;42.696;23.354;2023-04-10T06:19:19;15.87;;;11.13;;
7833;SDS011;3962;42.696;23.354;2023-04-10T06:21:45;23.57;;;13.33;;
7833;SDS011;3962;42.696;23.354;2023-04-10T06:24:12;20.27;;;12.93;;
7833;SDS011;3962;42.696;23.354;2023-04-10T06:26:39;21.30;;;12.60;;
7833;SDS011;3962;42.696;23.354;2023-04-10T06:29:06;21.70;;;11.47;;
7833;SDS011;3962;42.696;23.354;2023-04-10T06:31:33;18.63;;;11.00;;
7833;SDS011;3962;42.696;23.354;2023-04-10T06:34:02;17.43;;;11.30;;
7833;SDS011;3962;42.696;23.354;2023-04-10T06:36:28;16.17;;;10.27;;
7833;SDS011;3962;42.696;23.354;2023-04-10T06:38:55;18.83;;;10.70;;
7833;SDS011;3962;42.696;23.354;2023-04-10T06:41:22;16.70;;;10.93;;
7833;SDS011;3962;42.696;23.354;2023-04-10T06:43:49;22.07;;;11.07;;
7833;SDS011;3962;42.696;23.354;2023-04-10T06:46:18;197.27;;;40.67;;
7833;SDS011;3962;42.696;23.354;2023-04-10T06:48:45;111.50;;;30.33;;
7833;SDS011;3962;42.696;23.354;2023-04-10T06:51:13;22.43;;;13.07;;
7833;SDS011;3962;42.696;23.354;2023-04-10T06:53:40;34.77;;;13.53;;
7833;SDS011;3962;42.696;23.354;2023-04-10T06:56:07;25.63;;;12.53;;
7833;SDS011;3962;42.696;23.354;2023-04-10T06:58:34;24.53;;;12.20;;
7833;SDS011;3962;42.696;23.354;2023-04-10T07:01:01;22.63;;;11.57;;
7833;SDS011;3962;42.696;23.354;2023-04-10T07:03:28;17.37;;;10.77;;
7833;SDS011;3962;42.696;23.354;2023-04-10T07:05:56;23.83;;;12.70;;
7833;SDS011;3962;42.696;23.354;2023-04-10T07:08:24;18.30;;;11.20;;
7833;SDS011;3962;42.696;23.354;2023-04-10T07:10:51;27.77;;;12.70;;
7833;SDS011;3962;42.696;23.354;2023-04-10T07:13:18;16.00;;;11.17;;
7833;SDS011;3962;42.696;23.354;2023-04-10T07:15:45;19.67;;;11.60;;
7833;SDS011;3962;42.696;23.354;2023-04-10T07:18:11;19.80;;;10.47;;
7833;SDS011;3962;42.696;23.354;2023-04-10T07:20:38;19.23;;;11.53;;
7833;SDS011;3962;42.696;23.354;2023-04-10T07:23:05;18.00;;;11.20;;
7833;SDS011;3962;42.696;23.354;2023-04-10T07:25:34;18.73;;;12.67;;
7833;SDS011;3962;42.696;23.354;2023-04-10T07:28:01;23.73;;;12.67;;
7833;SDS011;3962;42.696;23.354;2023-04-10T07:30:27;18.73;;;11.53;;
7833;SDS011;3962;42.696;23.354;2023-04-10T07:32:54;23.83;;;13.03;;
7833;SDS011;3962;42.696;23.354;2023-04-10T07:35:21;29.73;;;13.13;;
7833;SDS011;3962;42.696;23.354;2023-04-10T07:37:48;22.83;;;13.47;;
7833;SDS011;3962;42.696;23.354;2023-04-10T07:40:16;29.73;;;14.90;;
7833;SDS011;3962;42.696;23.354;2023-04-10T07:42:45;29.90;;;14.27;;
7833;SDS011;3962;42.696;23.354;2023-04-10T07:45:12;21.73;;;12.37;;
7833;SDS011;3962;42.696;23.354;2023-04-10T07:47:39;20.13;;;12.87;;
7833;SDS011;3962;42.696;23.354;2023-04-10T07:50:06;22.47;;;12.40;;
7833;SDS011;3962;42.696;23.354;2023-04-10T07:52:34;21.13;;;13.17;;
7833;SDS011;3962;42.696;23.354;2023-04-10T07:55:01;25.27;;;13.70;;
7833;SDS011;3962;42.696;23.354;2023-04-10T07:57:28;19.20;;;13.17;;
7833;SDS011;3962;42.696;23.354;2023-04-10T07:59:57;21.53;;;13.90;;
7833;SDS011;3962;42.696;23.354;2023-04-10T08:02:24;18.10;;;12.77;;
7833;SDS011;3962;42.696;23.354;2023-04-10T08:04:51;26.20;;;14.53;;
7833;SDS011;3962;42.696;23.354;2023-04-10T08:07:18;21.17;;;13.67;;
7833;SDS011;3962;42.696;23.354;2023-04-10T08:09:46;26.47;;;12.77;;
7833;SDS011;3962;42.696;23.354;2023-04-10T08:12:13;23.57;;;13.13;;
7833;SDS011;3962;42.696;23.354;2023-04-10T08:14:40;24.37;;;12.47;;
7833;SDS011;3962;42.696;23.354;2023-04-10T08:17:10;19.80;;;12.57;;
7833;SDS011;3962;42.696;23.354;2023-04-10T08:19:39;19.87;;;11.97;;
7833;SDS011;3962;42.696;23.354;2023-04-10T08:22:06;22.87;;;12.63;;
7833;SDS011;3962;42.696;23.354;2023-04-10T08:24:33;25.77;;;13.97;;
7833;SDS011;3962;42.696;23.354;2023-04-10T08:27:00;24.93;;;13.67;;
7833;SDS011;3962;42.696;23.354;2023-04-10T08:29:27;19.60;;;12.57;;
7833;SDS011;3962;42.696;23.354;2023-04-10T08:31:54;21.33;;;14.30;;
7833;SDS011;3962;42.696;23.354;2023-04-10T08:34:26;18.37;;;12.00;;
7833;SDS011;3962;42.696;23.354;2023-04-10T08:36:53;22.67;;;13.40;;
7833;SDS011;3962;42.696;23.354;2023-04-10T08:39:20;18.27;;;12.13;;
7833;SDS011;3962;42.696;23.354;2023-04-10T08:41:47;18.13;;;11.50;;
7833;SDS011;3962;42.696;23.354;2023-04-10T08:44:14;14.83;;;10.03;;
7833;SDS011;3962;42.696;23.354;2023-04-10T08:46:43;20.60;;;12.00;;
7833;SDS011;3962;42.696;23.354;2023-04-10T08:49:16;14.97;;;10.87;;
7833;SDS011;3962;42.696;23.354;2023-04-10T08:51:53;16.90;;;11.33;;
7833;SDS011;3962;42.696;23.354;2023-04-10T08:54:24;15.33;;;10.47;;
7833;SDS011;3962;42.696;23.354;2023-04-10T08:56:55;16.10;;;11.60;;
7833;SDS011;3962;42.696;23.354;2023-04-10T08:59:26;12.40;;;9.37;;
7833;SDS011;3962;42.696;23.354;2023-04-10T09:01:53;12.07;;;8.77;;
7833;SDS011;3962;42.696;23.354;2023-04-10T09:04:21;14.47;;;9.47;;
7833;SDS011;3962;42.696;23.354;2023-04-10T09:06:49;12.00;;;8.77;;
7833;SDS011;3962;42.696;23.354;2023-04-10T09:09:19;22.03;;;11.83;;
7833;SDS011;3962;42.696;23.354;2023-04-10T09:11:56;16.37;;;9.97;;
7833;SDS011;3962;42.696;23.354;2023-04-10T09:14:26;20.67;;;9.63;;
7833;SDS011;3962;42.696;23.354;2023-04-10T09:17:08;12.67;;;8.97;;
7833;SDS011;3962;42.696;23.354;2023-04-10T09:19:38;15.27;;;9.43;;
7833;SDS011;3962;42.696;23.354;2023-04-10T09:22:05;16.73;;;9.60;;
7833;SDS011;3962;42.696;23.354;2023-04-10T09:24:38;12.50;;;9.90;;
7833;SDS011;3962;42.696;23.354;2023-04-10T09:27:06;12.93;;;9.20;;
7833;SDS011;3962;42.696;23.354;2023-04-10T09:29:42;15.97;;;10.20;;
7833;SDS011;3962;42.696;23.354;2023-04-10T09:32:13;15.33;;;9.87;;
7833;SDS011;3962;42.696;23.354;2023-04-10T09:35:02;13.53;;;9.30;;
7833;SDS011;3962;42.696;23.354;2023-04-10T09:37:30;14.90;;;9.70;;
7833;SDS011;3962;42.696;23.354;2023-04-10T09:39:58;11.13;;;8.17;;
7833;SDS011;3962;42.696;23.354;2023-04-10T09:42:29;14.60;;;9.97;;
7833;SDS011;3962;42.696;23.354;2023-04-10T09:44:58;14.40;;;8.83;;
7833;SDS011;3962;42.696;23.354;2023-04-10T09:47:25;12.93;;;9.03;;
7833;SDS011;3962;42.696;23.354;2023-04-10T09:49:53;10.87;;;8.03;;
7833;SDS011;3962;42.696;23.354;2023-04-10T09:52:21;14.73;;;8.87;;
7833;SDS011;3962;42.696;23.354;2023-04-10T09:54:50;18.77;;;10.70;;
7833;SDS011;3962;42.696;23.354;2023-04-10T09:57:20;15.03;;;9.17;;
7833;SDS011;3962;42.696;23.354;2023-04-10T09:59:48;11.63;;;8.47;;
7833;SDS011;3962;42.696;23.354;2023-04-10T10:02:16;12.23;;;9.10;;
7833;SDS011;3962;42.696;23.354;2023-04-10T10:04:45;10.80;;;8.70;;
7833;SDS011;3962;42.696;23.354;2023-04-10T10:07:13;13.03;;;9.20;;
7833;SDS011;3962;42.696;23.354;2023-04-10T10:09:41;17.00;;;9.80;;
7833;SDS011;3962;42.696;23.354;2023-04-10T10:12:09;14.23;;;8.90;;
7833;SDS011;3962;42.696;23.354;2023-04-10T10:14:40;15.40;;;9.00;;
7833;SDS011;3962;42.696;23.354;2023-04-10T10:17:23;11.97;;;9.20;;
7833;SDS011;3962;42.696;23.354;2023-04-10T10:19:53;15.83;;;9.23;;
7833;SDS011;3962;42.696;23.354;2023-04-10T10:22:25;13.40;;;9.23;;
7833;SDS011;3962;42.696;23.354;2023-04-10T10:24:55;15.00;;;10.10;;
7833;SDS011;3962;42.696;23.354;2023-04-10T10:27:24;12.00;;;8.80;;
7833;SDS011;3962;42.696;23.354;2023-04-10T10:29:53;14.90;;;9.20;;
7833;SDS011;3962;42.696;23.354;2023-04-10T10:32:22;11.93;;;8.20;;
7833;SDS011;3962;42.696;23.354;2023-04-10T10:34:51;12.83;;;9.20;;
7833;SDS011;3962;42.696;23.354;2023-04-10T10:37:18;14.53;;;9.47;;
7833;SDS011;3962;42.696;23.354;2023-04-10T10:39:48;19.53;;;11.03;;
7833;SDS011;3962;42.696;23.354;2023-04-10T10:42:22;14.70;;;8.67;;
7833;SDS011;3962;42.696;23.354;2023-04-10T10:44:59;14.63;;;9.90;;
7833;SDS011;3962;42.696;23.354;2023-04-10T10:47:33;15.00;;;8.83;;
7833;SDS011;3962;42.696;23.354;2023-04-10T10:50:08;13.30;;;9.80;;
7833;SDS011;3962;42.696;23.354;2023-04-10T10:52:35;11.63;;;7.77;;
7833;SDS011;3962;42.696;23.354;2023-04-10T10:57:57;11.63;;;7.97;;
7833;SDS011;3962;42.696;23.354;2023-04-10T11:01:02;12.07;;;9.63;;
7833;SDS011;3962;42.696;23.354;2023-04-10T11:03:35;10.13;;;7.73;;
7833;SDS011;3962;42.696;23.354;2023-04-10T11:06:03;10.57;;;8.10;;
7833;SDS011;3962;42.696;23.354;2023-04-10T11:11:18;10.27;;;7.43;;
7833;SDS011;3962;42.696;23.354;2023-04-10T11:16:45;10.07;;;6.50;;
7833;SDS011;3962;42.696;23.354;2023-04-10T11:19:14;10.07;;;8.07;;
7833;SDS011;3962;42.696;23.354;2023-04-10T11:22:02;13.03;;;8.17;;
7833;SDS011;3962;42.696;23.354;2023-04-10T11:24:54;10.50;;;8.47;;
7833;SDS011;3962;42.696;23.354;2023-04-10T11:27:39;16.83;;;8.97;;
7833;SDS011;3962;42.696;23.354;2023-04-10T11:30:28;10.07;;;7.63;;
7833;SDS011;3962;42.696;23.354;2023-04-10T11:32:58;11.67;;;8.30;;
7833;SDS011;3962;42.696;23.354;2023-04-10T11:35:28;14.47;;;10.50;;
7833;SDS011;3962;42.696;23.354;2023-04-10T11:38:07;13.30;;;9.00;;
7833;SDS011;3962;42.696;23.354;2023-04-10T11:40:35;13.37;;;9.90;;
7833;SDS011;3962;42.696;23.354;2023-04-10T11:43:19;12.70;;;8.77;;
7833;SDS011;3962;42.696;23.354;2023-04-10T11:45:47;11.48;;;9.73;;
7833;SDS011;3962;42.696;23.354;2023-04-10T11:48:22;10.03;;;8.07;;
7833;SDS011;3962;42.696;23.354;2023-04-10T11:50:50;12.57;;;8.53;;
7833;SDS011;3962;42.696;23.354;2023-04-10T11:53:17;15.23;;;9.10;;
7833;SDS011;3962;42.696;23.354;2023-04-10T11:55:45;9.80;;;6.90;;
7833;SDS011;3962;42.696;23.354;2023-04-10T11:58:25;10.40;;;8.03;;
7833;SDS011;3962;42.696;23.354;2023-04-10T12:00:55;9.83;;;7.90;;
7833;SDS011;3962;42.696;23.354;2023-04-10T12:03:37;11.50;;;8.97;;
7833;SDS011;3962;42.696;23.354;2023-04-10T12:06:06;17.03;;;8.30;;
7833;SDS011;3962;42.696;23.354;2023-04-10T12:08:35;12.43;;;8.90;;
7833;SDS011;3962;42.696;23.354;2023-04-10T12:11:03;15.50;;;12.27;;
7833;SDS011;3962;42.696;23.354;2023-04-10T12:13:30;13.97;;;10.30;;
7833;SDS011;3962;42.696;23.354;2023-04-10T12:15:58;17.40;;;9.37;;
7833;SDS011;3962;42.696;23.354;2023-04-10T12:18:26;16.70;;;9.87;;
7833;SDS011;3962;42.696;23.354;2023-04-10T12:20:55;15.37;;;9.97;;
7833;SDS011;3962;42.696;23.354;2023-04-10T12:23:23;22.33;;;15.57;;
7833;SDS011;3962;42.696;23.354;2023-04-10T12:25:51;19.67;;;11.57;;
7833;SDS011;3962;42.696;23.354;2023-04-10T12:28:19;31.23;;;20.00;;
7833;SDS011;3962;42.696;23.354;2023-04-10T12:30:47;30.17;;;18.43;;
7833;SDS011;3962;42.696;23.354;2023-04-10T12:33:21;16.80;;;12.03;;
7833;SDS011;3962;42.696;23.354;2023-04-10T12:35:48;12.53;;;6.63;;
7833;SDS011;3962;42.696;23.354;2023-04-10T12:41:02;7.57;;;5.80;;
7833;SDS011;3962;42.696;23.354;2023-04-10T12:43:31;14.13;;;7.80;;
7833;SDS011;3962;42.696;23.354;2023-04-10T12:45:59;10.00;;;7.00;;
7833;SDS011;3962;42.696;23.354;2023-04-10T12:48:27;8.47;;;6.60;;
7833;SDS011;3962;42.696;23.354;2023-04-10T12:50:54;9.27;;;7.00;;
7833;SDS011;3962;42.696;23.354;2023-04-10T12:53:21;8.93;;;6.63;;
7833;SDS011;3962;42.696;23.354;2023-04-10T12:55:56;10.07;;;7.47;;
7833;SDS011;3962;42.696;23.354;2023-04-10T12:58:27;10.00;;;7.53;;
7833;SDS011;3962;42.696;23.354;2023-04-10T13:00:55;15.80;;;8.87;;
7833;SDS011;3962;42.696;23.354;2023-04-10T13:03:24;14.33;;;9.33;;
7833;SDS011;3962;42.696;23.354;2023-04-10T13:05:52;13.03;;;9.67;;
7833;SDS011;3962;42.696;23.354;2023-04-10T13:08:20;14.30;;;9.47;;
7833;SDS011;3962;42.696;23.354;2023-04-10T13:10:47;11.37;;;8.53;;
7833;SDS011;3962;42.696;23.354;2023-04-10T13:13:16;11.53;;;8.47;;
7833;SDS011;3962;42.696;23.354;2023-04-10T13:15:43;11.93;;;8.80;;
7833;SDS011;3962;42.696;23.354;2023-04-10T13:18:09;10.83;;;8.10;;
7833;SDS011;3962;42.696;23.354;2023-04-10T13:20:39;12.70;;;10.13;;
7833;SDS011;3962;42.696;23.354;2023-04-10T13:23:07;14.00;;;10.67;;
7833;SDS011;3962;42.696;23.354;2023-04-10T13:25:35;12.10;;;9.03;;
7833;SDS011;3962;42.696;23.354;2023-04-10T13:28:05;14.93;;;10.73;;
7833;SDS011;3962;42.696;23.354;2023-04-10T13:30:37;14.40;;;9.90;;
7833;SDS011;3962;42.696;23.354;2023-04-10T13:33:04;10.77;;;8.60;;
7833;SDS011;3962;42.696;23.354;2023-04-10T13:35:31;12.00;;;8.90;;
7833;SDS011;3962;42.696;23.354;2023-04-10T13:37:59;11.80;;;9.23;;
7833;SDS011;3962;42.696;23.354;2023-04-10T13:40:26;15.17;;;9.87;;
7833;SDS011;3962;42.696;23.354;2023-04-10T13:42:53;11.80;;;9.77;;
7833;SDS011;3962;42.696;23.354;2023-04-10T13:45:20;12.27;;;9.00;;
7833;SDS011;3962;42.696;23.354;2023-04-10T13:47:48;13.23;;;9.87;;
7833;SDS011;3962;42.696;23.354;2023-04-10T13:50:15;13.37;;;10.30;;
7833;SDS011;3962;42.696;23.354;2023-04-10T13:52:42;16.23;;;10.53;;
7833;SDS011;3962;42.696;23.354;2023-04-10T13:55:09;15.60;;;10.63;;
7833;SDS011;3962;42.696;23.354;2023-04-10T13:57:36;16.73;;;10.77;;
7833;SDS011;3962;42.696;23.354;2023-04-10T14:00:04;13.73;;;10.03;;
7833;SDS011;3962;42.696;23.354;2023-04-10T14:02:32;13.90;;;10.00;;
7833;SDS011;3962;42.696;23.354;2023-04-10T14:05:01;14.40;;;9.17;;
7833;SDS011;3962;42.696;23.354;2023-04-10T14:07:28;12.57;;;9.40;;
7833;SDS011;3962;42.696;23.354;2023-04-10T14:09:57;15.60;;;9.53;;
7833;SDS011;3962;42.696;23.354;2023-04-10T14:12:24;11.20;;;8.67;;
7833;SDS011;3962;42.696;23.354;2023-04-10T14:14:51;11.83;;;9.13;;
7833;SDS011;3962;42.696;23.354;2023-04-10T14:17:18;9.90;;;7.90;;
7833;SDS011;3962;42.696;23.354;2023-04-10T14:19:45;10.57;;;8.00;;
7833;SDS011;3962;42.696;23.354;2023-04-10T14:22:16;11.73;;;7.77;;
7833;SDS011;3962;42.696;23.354;2023-04-10T14:24:43;11.43;;;7.20;;
7833;SDS011;3962;42.696;23.354;2023-04-10T14:27:10;6.70;;;5.93;;
7833;SDS011;3962;42.696;23.354;2023-04-10T14:29:37;8.57;;;6.63;;
7833;SDS011;3962;42.696;23.354;2023-04-10T14:32:04;16.70;;;7.70;;
7833;SDS011;3962;42.696;23.354;2023-04-10T14:34:32;9.63;;;6.53;;
7833;SDS011;3962;42.696;23.354;2023-04-10T14:36:59;20.33;;;7.83;;
7833;SDS011;3962;42.696;23.354;2023-04-10T14:39:28;7.83;;;6.00;;
7833;SDS011;3962;42.696;23.354;2023-04-10T14:41:55;10.53;;;7.57;;
7833;SDS011;3962;42.696;23.354;2023-04-10T14:44:22;10.50;;;7.70;;
7833;SDS011;3962;42.696;23.354;2023-04-10T14:46:49;11.40;;;7.50;;
7833;SDS011;3962;42.696;23.354;2023-04-10T14:49:16;11.47;;;7.63;;
7833;SDS011;3962;42.696;23.354;2023-04-10T14:51:43;11.50;;;7.17;;
7833;SDS011;3962;42.696;23.354;2023-04-10T14:54:10;13.07;;;7.33;;
7833;SDS011;3962;42.696;23.354;2023-04-10T14:56:41;12.40;;;8.00;;
7833;SDS011;3962;42.696;23.354;2023-04-10T14:59:08;10.10;;;7.30;;
7833;SDS011;3962;42.696;23.354;2023-04-10T15:01:37;12.27;;;8.10;;
7833;SDS011;3962;42.696;23.354;2023-04-10T15:04:04;9.07;;;7.30;;
7833;SDS011;3962;42.696;23.354;2023-04-10T15:06:31;12.93;;;7.87;;